Time;durP1;ratioP1;P1;durP2;ratioP2;P2;SDS_P1;SDS_P2;PMS_P1;PMS_P2;Temp;Humidity;BMP_temperature;BMP_pressure;BME280_temperature;BME280_humidity;BME280_pressure;Samples;Min_cycle;Max_cycle;Signal;HPM_P1;HPM_P2
2021/01/30 00:00:52;;;;;;;47.48;23.15;;;;;;;-2.34;80.10;98633.52;1645918;87;21223;-70
2021/01/30 00:03:18;;;;;;;35.90;19.30;;;;;;;-2.34;80.09;98638.73;1645851;85;22073;-70
2021/01/30 00:05:45;;;;;;;44.75;22.27;;;;;;;-2.37;80.11;98634.61;1645711;87;21247;-70
2021/01/30 00:08:13;;;;;;;50.08;23.52;;;;;;;-2.38;80.11;98632.13;1645791;85;21195;-70
2021/01/30 00:10:40;;;;;;;43.17;22.90;;;;;;;-2.38;80.13;98634.73;1645733;85;21187;-70
2021/01/30 00:13:09;;;;;;;36.42;18.98;;;;;;;-2.38;80.13;98634.73;1646148;85;21188;-70
2021/01/30 00:15:36;;;;;;;42.03;21.93;;;;;;;-2.41;80.14;98638.44;1646066;87;21621;-70
2021/01/30 00:18:02;;;;;;;43.10;20.12;;;;;;;-2.39;80.13;98635.71;1645981;85;21206;-70
2021/01/30 00:20:32;;;;;;;47.35;23.05;;;;;;;-2.38;80.15;98639.48;1646070;85;21699;-70
2021/01/30 00:22:58;;;;;;;48.08;22.13;;;;;;;-2.39;80.07;98639.63;1645723;85;23243;-70
2021/01/30 00:25:29;;;;;;;48.35;22.60;;;;;;;-2.39;80.07;98639.63;1645721;87;21652;-70
2021/01/30 00:27:56;;;;;;;52.75;23.05;;;;;;;-2.38;80.16;98632.13;1645372;87;21211;-70
2021/01/30 00:30:24;;;;;;;52.55;24.43;;;;;;;-2.42;80.18;98626.81;1645611;87;21211;-70
2021/01/30 00:32:50;;;;;;;44.75;23.83;;;;;;;-2.42;80.19;98626.34;1645435;87;21216;-70
2021/01/30 00:35:19;;;;;;;80.28;35.28;;;;;;;-2.42;80.19;98633.34;1645904;86;21176;-70
2021/01/30 00:37:46;;;;;;;40.13;18.47;;;;;;;-2.42;80.20;98627.64;1649161;87;21207;-70
2021/01/30 00:40:12;;;;;;;45.75;22.87;;;;;;;-2.39;80.20;98635.71;1648577;87;22092;-70
2021/01/30 00:42:39;;;;;;;47.25;20.82;;;;;;;-2.40;80.21;98635.36;1648838;87;21155;-70
2021/01/30 00:45:07;;;;;;;68.02;27.93;;;;;;;-2.39;80.19;98634.41;1648631;87;21131;-70
2021/01/30 00:47:35;;;;;;;53.58;25.43;;;;;;;-2.43;80.20;98634.31;1648700;87;21259;-70
2021/01/30 00:50:02;;;;;;;76.15;32.03;;;;;;;-2.43;80.22;98624.70;1648920;87;21167;-70
2021/01/30 00:52:28;;;;;;;52.20;25.15;;;;;;;-2.44;80.21;98624.83;1648870;87;21609;-70
2021/01/30 00:54:54;;;;;;;41.45;21.02;;;;;;;-2.44;80.21;98627.44;1648836;87;21224;-70
2021/01/30 00:57:21;;;;;;;42.70;22.22;;;;;;;-2.45;80.23;98625.78;1649036;87;21188;-70
2021/01/30 00:59:47;;;;;;;44.70;22.30;;;;;;;-2.47;80.24;98626.41;1649163;87;21237;-70
2021/01/30 01:02:13;;;;;;;47.15;22.85;;;;;;;-2.48;80.25;98616.91;1648889;87;21172;-70
2021/01/30 01:07:26;;;;;;;46.35;26.70;;;;;;;-2.43;80.28;98606.44;1799678;77;28502;-70
2021/01/30 01:09:52;;;;;;;46.58;24.37;;;;;;;-2.43;80.26;98605.61;1787911;79;21125;-70
2021/01/30 01:12:18;;;;;;;45.17;21.50;;;;;;;-2.43;80.28;98603.83;1787842;80;21324;-70
2021/01/30 01:14:45;;;;;;;48.02;22.45;;;;;;;-2.41;80.32;98616.73;1787881;80;21568;-70
2021/01/30 01:17:11;;;;;;;42.20;21.20;;;;;;;-2.44;80.31;98610.47;1787861;80;21147;-70
2021/01/30 01:19:37;;;;;;;41.02;21.42;;;;;;;-2.46;80.32;98604.58;1787938;80;21139;-70
2021/01/30 01:22:03;;;;;;;49.50;24.27;;;;;;;-2.48;80.34;98609.08;1787849;80;21958;-70
2021/01/30 01:24:30;;;;;;;48.42;25.57;;;;;;;-2.50;80.36;98612.31;1787859;80;21200;-70
2021/01/30 01:26:58;;;;;;;48.58;23.25;;;;;;;-2.49;80.38;98613.95;1787925;80;21033;-70
2021/01/30 01:29:24;;;;;;;68.83;32.20;;;;;;;-2.52;80.34;98608.05;1787742;80;21159;-70
2021/01/30 01:31:55;;;;;;;49.25;23.52;;;;;;;-2.52;80.37;98609.35;1772277;80;21159;-70
2021/01/30 01:34:22;;;;;;;52.90;25.90;;;;;;;-2.52;80.38;98610.66;1756766;81;21750;-70
2021/01/30 01:36:54;;;;;;;62.40;29.15;;;;;;;-2.54;80.40;98607.36;1756553;80;21193;-70
2021/01/30 01:39:20;;;;;;;54.13;27.95;;;;;;;-2.50;80.42;98607.09;1756553;81;21159;-70
2021/01/30 01:41:56;;;;;;;57.88;28.32;;;;;;;-2.50;80.42;98612.31;1756534;80;21147;-70
2021/01/30 01:44:22;;;;;;;56.88;25.60;;;;;;;-2.50;80.44;98613.63;1756666;80;21119;-70
2021/01/30 01:46:49;;;;;;;46.68;22.85;;;;;;;-2.53;80.47;98608.16;1756705;81;21150;-69
2021/01/30 01:49:18;;;;;;;50.90;25.88;;;;;;;-2.57;80.48;98603.69;1756753;81;21568;-70
2021/01/30 01:51:47;;;;;;;74.72;32.45;;;;;;;-2.60;80.50;98605.26;1756818;81;21182;-70
2021/01/30 01:54:17;;;;;;;55.63;26.27;;;;;;;-2.58;80.55;98605.14;1756957;81;21123;-69
2021/01/30 01:56:44;;;;;;;53.70;26.97;;;;;;;-2.56;80.54;98601.44;1756657;80;21155;-70
2021/01/30 01:59:13;;;;;;;56.37;29.05;;;;;;;-2.55;80.57;98595.27;1756640;81;21135;-69
2021/01/30 02:01:40;;;;;;;72.97;36.20;;;;;;;-2.59;80.59;98591.27;1756760;80;21195;-69
2021/01/30 02:04:10;;;;;;;64.80;30.60;;;;;;;-2.63;80.60;98587.27;1756468;81;21171;-70
2021/01/30 02:06:39;;;;;;;59.10;29.45;;;;;;;-2.62;80.65;98593.31;1756438;81;21206;-69
2021/01/30 02:09:08;;;;;;;56.80;27.00;;;;;;;-2.64;80.64;98588.21;1757006;81;21111;-70
2021/01/30 02:11:35;;;;;;;57.50;28.07;;;;;;;-2.64;80.68;98590.82;1756986;81;21827;-70
2021/01/30 02:14:02;;;;;;;49.35;26.85;;;;;;;-2.66;80.69;98587.53;1756725;81;21289;-69
2021/01/30 02:16:42;;;;;;;48.75;26.15;;;;;;;-2.67;80.73;98593.70;1756506;81;21167;-69
2021/01/30 02:19:53;;;;;;;53.75;26.10;;;;;;;-2.68;80.75;98589.93;1756147;81;21419;-70
2021/01/30 02:22:52;;;;;;;46.73;23.40;;;;;;;-2.70;80.78;98584.83;1755994;81;21750;-69
2021/01/30 02:26:03;;;;;;;51.30;26.60;;;;;;;-2.73;80.81;98591.63;1756171;80;21126;-70
2021/01/30 02:28:58;;;;;;;49.95;26.48;;;;;;;-2.78;80.82;98587.77;1756120;81;22168;-69
2021/01/30 02:31:30;;;;;;;53.98;25.90;;;;;;;-2.81;80.83;98580.17;1727342;81;21119;-69
2021/01/30 02:34:34;;;;;;;54.23;25.65;;;;;;;-2.83;80.87;98575.11;1755921;80;21167;-69
2021/01/30 02:37:09;;;;;;;51.53;25.75;;;;;;;-2.84;80.91;98583.05;1750945;81;21726;-70
2021/01/30 02:39:54;;;;;;;51.80;25.62;;;;;;;-2.80;80.99;98576.15;1810856;78;28160;-70
2021/01/30 02:42:34;;;;;;;50.38;25.88;;;;;;;-2.88;80.99;98575.97;1796780;79;21156;-70
2021/01/30 02:45:06;;;;;;;44.75;24.32;;;;;;;-2.90;81.02;98571.84;1796909;79;21202;-70
2021/01/30 02:47:36;;;;;;;54.13;27.60;;;;;;;-2.90;81.05;98566.16;1796455;78;21060;-70
2021/01/30 02:50:10;;;;;;;54.67;25.08;;;;;;;-2.92;81.08;98570.66;1796705;79;28300;-70
2021/01/30 02:52:37;;;;;;;49.58;27.40;;;;;;;-2.91;81.09;98564.50;1763434;79;21194;-70
2021/01/30 02:55:07;;;;;;;46.48;26.68;;;;;;;-2.91;81.12;98561.89;1796759;79;21199;-70
2021/01/30 02:57:35;;;;;;;53.90;28.07;;;;;;;-2.91;81.16;98564.50;1795981;79;22059;-70
2021/01/30 03:00:02;;;;;;;51.10;28.07;;;;;;;-2.91;81.19;98567.58;1789131;79;21147;-70
2021/01/30 03:02:29;;;;;;;50.00;26.80;;;;;;;-2.92;81.22;98564.14;1796454;79;21127;-70
2021/01/30 03:04:56;;;;;;;54.50;28.45;;;;;;;-2.92;81.28;98566.75;1796485;79;21197;-70
2021/01/30 03:07:57;;;;;;;58.08;29.50;;;;;;;-2.93;81.32;98561.20;1796879;79;21119;-70
2021/01/30 03:10:43;;;;;;;53.98;27.45;;;;;;;-2.94;81.33;98558.72;1796501;79;21189;-70
2021/01/30 03:13:33;;;;;;;57.73;29.30;;;;;;;-2.96;81.37;98564.08;1796688;79;21223;-70
2021/01/30 03:16:07;;;;;;;59.40;28.00;;;;;;;-2.99;81.41;98555.69;1796974;79;21131;-70
2021/01/30 03:18:35;;;;;;;53.78;28.47;;;;;;;-3.00;81.44;98569.20;1763791;79;21167;-70
2021/01/30 03:21:05;;;;;;;47.15;24.07;;;;;;;-3.03;81.45;98568.96;1789312;79;21163;-70
2021/01/30 03:23:31;;;;;;;48.73;28.15;;;;;;;-3.06;81.47;98565.78;1796848;79;21174;-70
2021/01/30 03:26:01;;;;;;;56.98;29.60;;;;;;;-3.09;81.48;98560.84;1796756;79;21544;-70
2021/01/30 03:28:27;;;;;;;45.88;23.55;;;;;;;-3.11;81.53;98558.84;1796971;79;21142;-70
2021/01/30 03:30:53;;;;;;;60.23;30.80;;;;;;;-3.13;81.55;98549.05;1793140;79;21136;-69
2021/01/30 03:33:20;;;;;;;53.08;27.73;;;;;;;-3.13;81.57;98556.86;1764587;81;21171;-70
2021/01/30 03:35:46;;;;;;;57.35;29.48;;;;;;;-3.11;81.60;98558.84;1733296;82;21947;-70
2021/01/30 03:38:12;;;;;;;55.85;29.45;;;;;;;-3.11;81.64;98556.24;1755248;81;21184;-70
2021/01/30 03:40:40;;;;;;;57.25;29.55;;;;;;;-3.10;81.65;98556.59;1725338;83;21164;-69
2021/01/30 03:43:07;;;;;;;54.27;28.70;;;;;;;-3.09;81.67;98561.66;1756640;81;21196;-70
2021/01/30 03:45:34;;;;;;;57.38;28.07;;;;;;;-3.10;81.70;98567.03;1756364;81;21160;-70
2021/01/30 03:48:00;;;;;;;59.93;30.35;;;;;;;-3.11;81.72;98562.76;1756737;81;21211;-70
2021/01/30 03:50:26;;;;;;;59.45;29.40;;;;;;;-3.13;81.77;98554.25;1725098;83;21187;-70
2021/01/30 03:52:53;;;;;;;55.98;29.05;;;;;;;-3.16;81.80;98554.48;1756033;81;21649;-70
2021/01/30 03:55:19;;;;;;;55.80;31.77;;;;;;;-3.18;81.82;98554.63;1724999;83;21144;-70
2021/01/30 03:57:46;;;;;;;56.45;31.60;;;;;;;-3.18;81.86;98559.02;1724678;83;21140;-69
2021/01/30 04:00:16;;;;;;;59.80;31.57;;;;;;;-3.19;81.89;98562.09;1724994;83;21224;-69
2021/01/30 04:02:42;;;;;;;56.33;31.42;;;;;;;-3.18;81.92;98559.02;1724758;83;21581;-69
2021/01/30 04:05:11;;;;;;;59.05;28.60;;;;;;;-3.18;81.96;98553.80;1724807;83;21167;-69
2021/01/30 04:07:38;;;;;;;66.85;33.75;;;;;;;-3.18;81.96;98561.63;1755544;81;21627;-69
2021/01/30 04:10:06;;;;;;;66.07;31.50;;;;;;;-3.20;82.00;98560.44;1724848;83;21148;-69
2021/01/30 04:12:32;;;;;;;65.40;32.67;;;;;;;-3.18;82.01;98562.45;1724950;83;21215;-69
2021/01/30 04:14:59;;;;;;;60.20;33.08;;;;;;;-3.17;82.02;98559.38;1724393;83;21216;-69
2021/01/30 04:17:26;;;;;;;61.20;30.27;;;;;;;-3.16;82.07;98566.22;1725074;83;21199;-69
2021/01/30 04:19:53;;;;;;;60.17;28.75;;;;;;;-3.17;82.08;98561.98;1756047;81;21588;-69
2021/01/30 04:22:19;;;;;;;60.03;31.02;;;;;;;-3.19;82.09;98559.96;1724868;83;21215;-69
2021/01/30 04:24:45;;;;;;;64.05;32.17;;;;;;;-3.20;82.13;98566.16;1725030;83;22165;-69
2021/01/30 04:27:13;;;;;;;61.75;34.13;;;;;;;-3.20;82.18;98570.06;1755800;81;21226;-69
2021/01/30 04:29:42;;;;;;;56.48;28.85;;;;;;;-3.21;82.20;98565.33;1724902;83;21199;-69
2021/01/30 04:32:09;;;;;;;65.52;32.33;;;;;;;-3.22;82.23;98564.13;1724908;83;21576;-70
2021/01/30 04:34:35;;;;;;;65.52;33.23;;;;;;;-3.22;82.28;98556.31;1724980;83;21180;-70
2021/01/30 04:37:02;;;;;;;80.20;36.68;;;;;;;-3.25;82.31;98552.67;1724811;82;21192;-70
2021/01/30 04:39:28;;;;;;;88.37;39.40;;;;;;;-3.26;82.33;98549.70;1720114;82;21688;-70
2021/01/30 04:42:02;;;;;;;81.65;36.10;;;;;;;-3.27;82.36;98554.59;1707293;84;21159;-70
2021/01/30 04:44:49;;;;;;;78.60;37.85;;;;;;;-3.27;82.38;98550.17;1701741;84;21174;-69
2021/01/30 04:47:30;;;;;;;79.15;35.10;;;;;;;-3.26;82.42;98554.92;1702024;84;21168;-69
2021/01/30 04:50:48;;;;;;;74.55;37.17;;;;;;;-3.25;82.46;98558.71;1701640;84;21276;-69
2021/01/30 04:53:21;;;;;;;73.07;34.27;;;;;;;-3.25;82.50;98551.36;1701930;84;21188;-69
2021/01/30 04:56:40;;;;;;;78.20;38.33;;;;;;;-3.25;82.53;98563.09;1852018;77;28160;-70
2021/01/30 04:59:15;;;;;;;71.12;34.58;;;;;;;-3.30;82.56;98570.45;1824213;78;21200;-70
2021/01/30 05:01:56;;;;;;;71.72;37.35;;;;;;;-3.28;82.60;98572.47;1823295;78;21595;-70
2021/01/30 05:04:26;;;;;;;61.88;32.58;;;;;;;-3.25;82.60;98571.74;1823702;78;21140;-70
2021/01/30 05:07:18;;;;;;;60.78;33.45;;;;;;;-3.23;82.63;98578.94;1792683;78;21140;-70
2021/01/30 05:10:03;;;;;;;66.00;33.98;;;;;;;-3.20;82.65;98582.59;1824115;78;21597;-70
2021/01/30 05:12:59;;;;;;;70.97;34.13;;;;;;;-3.16;82.68;98585.77;1824108;78;21155;-70
2021/01/30 05:15:42;;;;;;;68.62;36.13;;;;;;;-3.17;82.70;98591.95;1824327;78;21250;-70
2021/01/30 05:18:27;;;;;;;66.25;35.30;;;;;;;-3.22;82.72;98590.20;1787161;80;21040;-70
2021/01/30 05:21:13;;;;;;;75.00;37.88;;;;;;;-3.22;82.74;98588.89;1787841;80;21926;-70
2021/01/30 05:23:39;;;;;;;71.55;36.95;;;;;;;-3.25;82.76;98588.68;1755100;81;21140;-70
2021/01/30 05:26:21;;;;;;;66.62;34.00;;;;;;;-3.25;82.78;98583.94;1787808;80;21595;-70
2021/01/30 05:29:05;;;;;;;76.22;34.88;;;;;;;-3.26;82.79;98592.23;1717624;81;22113;-70
2021/01/30 05:31:55;;;;;;;71.42;35.43;;;;;;;-3.29;82.80;98600.78;1776527;80;21142;-70
2021/01/30 05:34:52;;;;;;;69.47;35.45;;;;;;;-3.29;82.80;98600.78;1724216;83;21175;-70
2021/01/30 05:37:51;;;;;;;67.90;34.65;;;;;;;-3.29;82.81;98599.48;1756255;81;21214;-70
2021/01/30 05:40:38;;;;;;;66.02;31.73;;;;;;;-3.30;82.83;98610.38;1725301;83;21176;-70
2021/01/30 05:43:30;;;;;;;64.60;34.48;;;;;;;-3.30;82.83;98605.16;1756762;81;21198;-70
2021/01/30 05:45:58;;;;;;;63.08;34.33;;;;;;;-3.30;82.85;98605.63;1725035;83;21541;-70
2021/01/30 05:48:29;;;;;;;67.90;35.00;;;;;;;-3.31;82.88;98606.14;1756684;81;21591;-70
2021/01/30 05:51:19;;;;;;;78.67;35.25;;;;;;;-3.31;82.88;98613.13;1724828;83;21188;-70
2021/01/30 05:53:45;;;;;;;65.00;33.60;;;;;;;-3.33;82.90;98607.20;1756894;81;21127;-70
2021/01/30 05:56:11;;;;;;;65.55;33.75;;;;;;;-3.33;82.91;98617.62;1725098;83;22120;-70
2021/01/30 05:58:43;;;;;;;65.22;34.00;;;;;;;-3.34;82.93;98623.80;1756707;81;21571;-70
2021/01/30 06:01:23;;;;;;;67.62;33.25;;;;;;;-3.35;82.93;98635.17;1724930;83;21596;-69
2021/01/30 06:03:58;;;;;;;66.80;32.65;;;;;;;-3.36;82.96;98634.34;1756583;81;21155;-70
2021/01/30 06:06:35;;;;;;;71.28;35.52;;;;;;;-3.34;82.95;98626.41;1724672;83;21144;-70
2021/01/30 06:09:12;;;;;;;72.78;36.63;;;;;;;-3.37;83.00;98640.50;1755871;81;21238;-69
2021/01/30 06:11:47;;;;;;;107.43;49.23;;;;;;;-3.37;83.00;98657.91;1724386;83;21188;-69
2021/01/30 06:14:36;;;;;;;94.45;44.83;;;;;;;-3.35;83.02;98663.84;1755897;81;21154;-70
2021/01/30 06:17:03;;;;;;;90.30;44.75;;;;;;;-3.34;83.04;98670.70;1724330;83;21191;-69
2021/01/30 06:19:34;;;;;;;115.05;51.23;;;;;;;-3.34;83.05;98675.92;1756133;81;21123;-69
2021/01/30 06:22:14;;;;;;;155.72;68.62;;;;;;;-3.32;83.09;98683.13;1724328;83;21373;-69
2021/01/30 06:24:44;;;;;;;;;;;;;;;-3.30;83.11;98686.42;1755758;81;21191;-69
2021/01/30 06:27:09;;;;;;;182.15;72.97;;;;;;;-3.28;83.13;98685.84;1753696;81;20533;-69
2021/01/30 06:32:40;;;;;;;161.28;65.52;;;;;;;-3.26;83.15;98697.78;1729214;82;21185;-69
2021/01/30 06:35:21;;;;;;;117.57;51.00;;;;;;;-3.25;83.17;98698.61;1724666;83;21220;-69
2021/01/30 06:37:56;;;;;;;84.95;39.48;;;;;;;-3.26;83.19;98700.39;1727570;82;21192;-69
2021/01/30 06:40:34;;;;;;;98.07;44.15;;;;;;;-3.25;83.21;98702.52;1730536;82;21211;-69
2021/01/30 06:43:07;;;;;;;82.33;39.30;;;;;;;-3.25;83.22;98700.75;1730648;82;21135;-69
2021/01/30 06:45:39;;;;;;;85.22;40.33;;;;;;;-3.24;83.23;98708.09;1701540;82;21159;-69
2021/01/30 06:48:09;;;;;;;88.87;40.17;;;;;;;-3.22;83.25;98707.48;1724207;82;21265;-69
2021/01/30 06:50:41;;;;;;;94.80;41.73;;;;;;;-3.22;83.27;98713.52;1729278;82;21172;-69
2021/01/30 06:53:13;;;;;;;92.57;43.17;;;;;;;-3.18;83.30;98718.84;1728739;82;21176;-69
2021/01/30 06:55:39;;;;;;;120.28;47.50;;;;;;;-3.16;83.30;98721.30;1730258;82;21166;-69
2021/01/30 06:58:06;;;;;;;169.13;62.50;;;;;;;-3.14;83.33;98723.33;1730139;82;21601;-69
2021/01/30 07:00:35;;;;;;;144.60;55.25;;;;;;;-3.12;83.36;98730.53;1730152;82;21895;-69
2021/01/30 07:03:34;;;;;;;107.95;43.58;;;;;;;-3.11;83.37;98740.85;1733273;81;21552;-69
2021/01/30 07:06:13;;;;;;;109.35;47.30;;;;;;;-3.09;83.40;98747.22;1734994;81;21462;-69
2021/01/30 07:09:12;;;;;;;102.35;49.67;;;;;;;-3.08;83.41;98751.03;1699368;83;21600;-69
2021/01/30 07:11:52;;;;;;;156.57;69.77;;;;;;;-3.07;83.44;98759.67;1729797;82;21576;-69
2021/01/30 07:14:45;;;;;;;204.57;78.72;;;;;;;-3.07;83.45;98764.89;1730539;82;21199;-69
2021/01/30 07:17:41;;;;;;;310.50;108.60;;;;;;;-3.03;83.48;98766.30;1704621;82;21175;-69
2021/01/30 07:20:16;;;;;;;144.47;65.22;;;;;;;-2.98;83.50;98766.73;1730570;82;21703;-69
2021/01/30 07:23:07;;;;;;;310.52;113.37;;;;;;;-2.90;83.52;98770.86;1696396;82;21664;-69
2021/01/30 07:26:25;;;;;;;172.10;75.37;;;;;;;-2.83;83.55;98782.45;1730626;82;21182;-69
2021/01/30 07:28:59;;;;;;;125.10;56.13;;;;;;;-2.75;83.56;98786.56;1730508;82;21535;-70
2021/01/30 07:31:36;;;;;;;102.35;46.83;;;;;;;-2.70;83.58;98796.13;1726675;82;21219;-70
2021/01/30 07:34:28;;;;;;;81.95;41.15;;;;;;;-2.67;83.61;98807.61;1719872;83;21188;-70
2021/01/30 07:37:18;;;;;;;128.30;56.15;;;;;;;-2.62;83.63;98808.55;1701368;83;21171;-70
2021/01/30 07:39:57;;;;;;;80.40;36.25;;;;;;;-2.60;83.65;98810.06;1702789;84;21343;-70
2021/01/30 07:42:48;;;;;;;61.60;30.73;;;;;;;-2.53;83.66;98819.05;1702661;84;21223;-70
2021/01/30 07:45:30;;;;;;;97.27;44.38;;;;;;;-2.51;83.67;98817.63;1720686;83;21148;-70
2021/01/30 07:48:17;;;;;;;75.20;37.40;;;;;;;-2.46;83.69;98822.47;1720602;83;21176;-70
2021/01/30 07:50:46;;;;;;;76.42;39.48;;;;;;;-2.43;83.72;98830.05;1720501;83;21637;-70
2021/01/30 07:53:25;;;;;;;95.28;42.65;;;;;;;-2.42;83.73;98833.81;1720796;83;21248;-70
2021/01/30 07:56:21;;;;;;;89.17;44.65;;;;;;;-2.37;83.74;98833.45;1701952;83;21609;-70
2021/01/30 07:59:09;;;;;;;114.47;53.00;;;;;;;-2.32;83.73;98839.12;1648319;85;21545;-70
2021/01/30 08:01:47;;;;;;;117.37;59.27;;;;;;;-2.27;83.77;98849.99;1704040;82;21138;-71
2021/01/30 08:04:54;;;;;;;95.25;50.92;;;;;;;-2.24;83.77;98851.04;1708459;82;21173;-70
2021/01/30 08:07:42;;;;;;;81.05;41.90;;;;;;;-2.18;83.78;98858.39;1704194;82;21156;-70
2021/01/30 08:10:23;;;;;;;104.15;47.65;;;;;;;-2.12;83.78;98855.25;1661904;84;22179;-70
2021/01/30 08:13:31;;;;;;;77.62;39.45;;;;;;;-2.06;83.80;98863.88;1694787;82;21179;-70
2021/01/30 08:16:21;;;;;;;75.60;38.25;;;;;;;-1.96;83.81;98871.28;1702163;83;21164;-70
2021/01/30 08:18:49;;;;;;;62.95;31.10;;;;;;;-1.93;83.82;98868.41;1663296;86;21213;-70
2021/01/30 08:21:43;;;;;;;79.47;40.17;;;;;;;-1.89;83.83;98880.26;1673796;82;21218;-70
2021/01/30 08:24:31;;;;;;;74.00;35.68;;;;;;;-1.92;83.83;98884.44;1673104;85;21688;-70
2021/01/30 08:27:18;;;;;;;76.82;37.33;;;;;;;-1.95;83.83;98892.53;1691076;84;21227;-70
2021/01/30 08:29:47;;;;;;;78.47;39.53;;;;;;;-1.97;83.83;98899.66;1718434;82;21180;-70
2021/01/30 08:32:30;;;;;;;104.38;52.80;;;;;;;-1.99;83.82;98897.66;1713902;83;21259;-70
2021/01/30 08:35:00;;;;;;;190.10;88.97;;;;;;;-1.97;83.81;98903.57;1696809;84;21168;-70
2021/01/30 08:37:32;;;;;;;101.78;46.50;;;;;;;-1.93;83.82;98908.89;1694977;83;21200;-70
2021/01/30 08:40:10;;;;;;;101.18;50.90;;;;;;;-1.86;83.81;98919.66;1713536;83;21166;-70
2021/01/30 08:43:00;;;;;;;74.90;37.10;;;;;;;-1.82;83.83;98922.36;1727950;83;21180;-70
2021/01/30 08:45:34;;;;;;;68.95;39.18;;;;;;;-1.81;83.85;98927.48;1715515;83;21240;-70
2021/01/30 08:48:26;;;;;;;63.52;33.42;;;;;;;-1.77;83.85;98924.13;1721647;83;21142;-70
2021/01/30 08:50:55;;;;;;;64.75;34.03;;;;;;;-1.71;83.86;98935.36;1683628;84;21217;-70
2021/01/30 08:53:28;;;;;;;65.28;33.50;;;;;;;-1.65;83.88;98940.90;1703111;83;21205;-70
2021/01/30 08:55:58;;;;;;;58.13;32.40;;;;;;;-1.61;83.89;98948.84;1720635;83;21641;-70
2021/01/30 08:58:39;;;;;;;75.80;35.90;;;;;;;-1.55;83.89;98952.23;1675713;84;21199;-70
2021/01/30 09:01:27;;;;;;;65.57;31.93;;;;;;;-1.47;83.88;98948.14;1684030;84;21215;-70
2021/01/30 09:03:58;;;;;;;52.03;29.90;;;;;;;-1.34;83.88;98959.23;1670591;85;21864;-70
2021/01/30 09:06:48;;;;;;;55.70;28.92;;;;;;;-1.25;83.90;98960.58;1672501;83;21699;-71
2021/01/30 09:09:25;;;;;;;43.00;23.57;;;;;;;-1.12;83.93;98969.50;1726221;83;21160;-71
2021/01/30 09:12:02;;;;;;;55.80;29.23;;;;;;;-0.93;83.92;98976.12;1691123;83;21306;-70
2021/01/30 09:14:33;;;;;;;55.80;31.50;;;;;;;-0.79;83.93;98976.23;1726502;83;21636;-71
2021/01/30 09:17:32;;;;;;;49.35;29.10;;;;;;;-0.64;83.94;98983.59;1718126;83;21214;-71
2021/01/30 09:20:22;;;;;;;48.90;27.35;;;;;;;-0.41;83.93;98988.58;1698655;84;21196;-71
2021/01/30 09:22:53;;;;;;;51.45;27.32;;;;;;;-0.25;83.95;98988.90;1698138;84;21160;-71
2021/01/30 09:25:59;;;;;;;101.50;44.35;;;;;;;-0.22;83.94;98995.17;1704011;83;21179;-70
2021/01/30 09:28:27;;;;;;;89.85;40.58;;;;;;;-0.19;83.93;98993.58;1691550;84;21219;-71
2021/01/30 09:31:02;;;;;;;79.05;36.95;;;;;;;-0.27;83.88;98994.73;1702883;83;21308;-71
2021/01/30 09:33:35;;;;;;;80.17;37.45;;;;;;;-0.28;83.87;99007.51;1692114;83;21597;-71
2021/01/30 09:36:12;;;;;;;86.12;41.60;;;;;;;-0.21;83.82;99003.38;1719954;83;21617;-70
2021/01/30 09:38:42;;;;;;;59.42;30.05;;;;;;;-0.15;83.81;99008.06;1731683;81;21139;-71
2021/01/30 09:41:23;;;;;;;;;;;;;;;-0.18;83.75;99016.20;1760060;81;21640;-71
2021/01/30 09:44:20;;;;;;;51.58;27.67;;;;;;;-0.18;83.72;99009.66;1695499;84;21208;-71
2021/01/30 09:46:55;;;;;;;41.98;25.72;;;;;;;-0.11;83.69;99014.69;1677767;83;21204;-71
2021/01/30 09:49:32;;;;;;;46.13;25.68;;;;;;;0.02;83.63;99020.48;1723924;81;21172;-71
2021/01/30 09:51:59;;;;;;;54.03;27.35;;;;;;;0.00;83.57;99028.98;1742258;81;21131;-70
2021/01/30 10:35:47;;;;;;;41.23;20.00;;;;;;;0.69;82.82;99055.02;1854353;75;22781;-72
2021/01/30 10:38:16;;;;;;;28.07;14.93;;;;;;;0.68;82.80;99059.91;1855401;77;21678;-72
2021/01/30 10:40:45;;;;;;;27.60;14.33;;;;;;;0.65;82.75;99053.64;1851656;77;21278;-72
2021/01/30 10:43:27;;;;;;;22.02;13.55;;;;;;;0.70;82.72;99060.62;1828459;78;21203;-72
2021/01/30 10:45:56;;;;;;;22.73;12.20;;;;;;;0.73;82.64;99066.89;1835417;77;21160;-72
2021/01/30 10:48:26;;;;;;;21.82;12.18;;;;;;;0.82;82.55;99072.59;1841769;77;21167;-73
2021/01/30 10:50:52;;;;;;;28.92;16.10;;;;;;;0.85;82.52;99068.38;1839795;77;22646;-72
2021/01/30 10:53:34;;;;;;;22.40;13.93;;;;;;;0.79;82.46;99069.77;1850337;77;21243;-72
2021/01/30 10:56:25;;;;;;;76.30;34.73;;;;;;;0.69;82.40;99079.94;1823035;77;21140;-72
2021/01/30 10:58:53;;;;;;;35.03;18.05;;;;;;;0.67;82.31;99085.31;1850689;77;21182;-72
2021/01/30 11:01:25;;;;;;;39.15;19.23;;;;;;;0.74;82.22;99080.36;1843912;77;21131;-72
2021/01/30 11:04:03;;;;;;;46.95;22.98;;;;;;;0.70;82.13;99075.05;1834054;77;21468;-72
2021/01/30 11:06:40;;;;;;;42.00;20.55;;;;;;;0.62;82.06;99078.84;1830693;77;21252;-72
2021/01/30 11:09:17;;;;;;;40.85;17.52;;;;;;;0.61;81.97;99078.48;1828323;77;21216;-72
2021/01/30 11:11:44;;;;;;;24.20;13.22;;;;;;;0.62;81.94;99080.16;1828643;78;21586;-72
2021/01/30 11:14:29;;;;;;;19.15;11.88;;;;;;;0.69;81.84;99078.15;1835321;77;21187;-72
2021/01/30 11:16:56;;;;;;;31.27;15.03;;;;;;;0.80;81.78;99082.41;1831590;77;21156;-72
2021/01/30 11:19:35;;;;;;;22.77;13.48;;;;;;;0.80;81.76;99086.34;1848054;76;21560;-72
2021/01/30 11:22:23;;;;;;;14.35;9.58;;;;;;;0.77;81.66;99087.95;1836122;77;21196;-72
2021/01/30 11:24:51;;;;;;;20.15;11.15;;;;;;;0.75;81.58;99079.37;1861226;77;21186;-72
2021/01/30 11:27:38;;;;;;;;;;;;;;;0.73;81.52;99079.53;1864927;76;21135;-72
2021/01/30 11:30:18;;;;;;;26.17;13.72;;;;;;;0.74;81.43;99079.05;1858998;77;20290;-72
2021/01/30 11:32:56;;;;;;;;;;;;;;;0.77;81.35;99085.32;1798700;79;22152;-72
2021/01/30 11:35:34;;;;;;;19.77;11.73;;;;;;;0.86;81.34;99091.86;1793651;79;20548;-72
2021/01/30 11:38:08;;;;;;;20.27;11.15;;;;;;;0.92;81.25;99091.77;1793688;79;21192;-72
2021/01/30 11:40:35;;;;;;;28.47;14.55;;;;;;;0.93;81.15;99098.69;1793511;79;21612;-72
2021/01/30 11:43:01;;;;;;;22.00;12.10;;;;;;;0.95;81.14;99094.14;1794754;78;21129;-72
2021/01/30 11:45:27;;;;;;;29.30;15.20;;;;;;;0.94;81.07;99101.17;1810778;78;22088;-72
2021/01/30 11:47:54;;;;;;;118.72;33.55;;;;;;;0.85;80.99;99098.06;1794671;78;21199;-72
2021/01/30 11:50:20;;;;;;;294.57;91.40;;;;;;;0.76;80.96;99099.40;1808608;78;21158;-72
2021/01/30 11:52:46;;;;;;;68.67;35.73;;;;;;;0.65;80.94;99104.79;1823070;78;21154;-73
2021/01/30 11:55:13;;;;;;;44.93;25.77;;;;;;;0.49;80.89;99100.12;1825818;78;21214;-73
2021/01/30 11:57:39;;;;;;;29.50;13.58;;;;;;;0.39;80.86;99105.81;1825480;78;21600;-73
2021/01/30 12:00:08;;;;;;;29.52;13.58;;;;;;;0.34;80.84;99111.97;1821725;78;21171;-73
2021/01/30 12:02:38;;;;;;;30.27;14.25;;;;;;;0.33;80.80;99119.00;1793122;80;21539;-73
2021/01/30 12:05:06;;;;;;;28.98;14.35;;;;;;;0.38;80.80;99119.91;1794218;78;21182;-73
2021/01/30 12:07:33;;;;;;;66.33;27.00;;;;;;;0.43;80.81;99109.83;1793745;78;21160;-73
2021/01/30 12:09:59;;;;;;;37.60;18.25;;;;;;;0.56;80.78;99119.58;1793117;79;21228;-73
2021/01/30 12:12:25;;;;;;;25.20;12.25;;;;;;;0.63;80.80;99122.00;1793145;79;21649;-72
2021/01/30 12:14:52;;;;;;;30.02;16.42;;;;;;;0.58;80.75;99122.88;1792635;80;21164;-73
2021/01/30 12:17:32;;;;;;;29.50;19.57;;;;;;;0.52;80.77;99119.98;1798361;78;21163;-73
2021/01/30 12:19:59;;;;;;;18.00;10.28;;;;;;;0.47;80.75;99118.59;1793260;79;21602;-73
2021/01/30 12:22:25;;;;;;;24.98;11.38;;;;;;;0.32;80.72;99122.58;1792927;80;22175;-72
2021/01/30 12:24:51;;;;;;;24.87;11.55;;;;;;;0.25;80.70;99129.33;1793503;78;21169;-73
2021/01/30 12:27:18;;;;;;;23.62;11.88;;;;;;;0.27;80.68;99127.42;1792946;80;21167;-73
2021/01/30 12:29:44;;;;;;;19.50;10.80;;;;;;;0.26;80.65;99129.69;1793012;79;21250;-72
2021/01/30 12:32:14;;;;;;;14.78;9.33;;;;;;;0.20;80.64;99130.72;1798562;78;21138;-72
2021/01/30 12:34:40;;;;;;;32.05;14.33;;;;;;;0.12;80.61;99126.15;1814735;78;21267;-72
2021/01/30 12:37:07;;;;;;;17.92;10.68;;;;;;;0.09;80.61;99122.49;1811861;78;21174;-72
2021/01/30 12:39:33;;;;;;;24.32;11.85;;;;;;;0.08;80.62;99130.00;1816628;78;21170;-71
2021/01/30 12:42:00;;;;;;;11.88;7.05;;;;;;;0.01;80.59;99134.13;1826636;78;21155;-72